Bammel, Texas
Current Conditions -  °F | °C
As of 7:53 PM on Sunday 25 Jan 2015 (Local Time) from KDWH Reporting Station
Clear Clear  
Wind Chill: 61°   Ceiling: Unl
Heat Index: 61°   Visibility: 10mi
Dew Point: 28°   Wind: 8mph
Humidity: 29%   Direction: 310°NW
Pressure: 30.09"   Gusts: NA
Location:  29.932°N, 95.7377°W
Report Text: KDWH 260153Z 31007KT 10SM CLR 16/M02 A3009 RMK AO2 SLP188 T01611022
Loading
Personal Weather Stations






























Interactive Weather Map New forecast layout! Learn more

10-Day Weather Forecast

Advertisements
Track Severe Weather on mobile